Time;durP1;ratioP1;P1;durP2;ratioP2;P2;SDS_P1;SDS_P2;PMS_P1;PMS_P2;Temp;Humidity;BMP_temperature;BMP_pressure;BME280_temperature;BME280_humidity;BME280_pressure;Samples;Min_cycle;Max_cycle;Signal;HPM_P1;HPM_P2
2021/05/11 00:00:55;;;;;;;2.40;1.23;;;12.40;99.90;;;;;;5098469;28;20279;-78
2021/05/11 00:03:20;;;;;;;1.50;1.13;;;12.30;99.90;;;;;;5098984;28;20176;-78
2021/05/11 00:05:46;;;;;;;2.33;1.23;;;12.30;99.90;;;;;;5080297;28;20688;-78
2021/05/11 00:08:12;;;;;;;3.47;2.13;;;12.30;99.90;;;;;;5098351;28;20234;-78
2021/05/11 00:10:37;;;;;;;3.93;1.60;;;12.30;99.90;;;;;;5098550;28;20294;-78
2021/05/11 00:13:03;;;;;;;2.17;1.10;;;12.20;99.90;;;;;;5098716;28;20279;-78
2021/05/11 00:15:29;;;;;;;3.77;1.67;;;12.10;99.90;;;;;;5080357;28;20184;-78
2021/05/11 00:17:55;;;;;;;3.77;1.67;;;12.10;99.90;;;;;;5098240;28;20231;-78
2021/05/11 00:20:21;;;;;;;3.03;1.90;;;12.00;99.90;;;;;;5079937;28;20184;-79
2021/05/11 00:22:48;;;;;;;4.40;2.70;;;12.10;99.90;;;;;;5098156;28;20167;-78
2021/05/11 00:25:15;;;;;;;2.77;1.77;;;12.10;99.90;;;;;;5097953;28;20251;-78
2021/05/11 00:27:41;;;;;;;2.13;1.30;;;12.10;99.90;;;;;;5079956;28;20180;-79
2021/05/11 00:30:09;;;;;;;1.33;1.13;;;12.10;99.90;;;;;;5079809;28;20211;-79
2021/05/11 00:32:34;;;;;;;2.20;1.40;;;12.00;99.90;;;;;;5097997;28;20180;-78
2021/05/11 00:35:00;;;;;;;1.93;1.57;;;12.00;99.90;;;;;;5079818;28;20180;-78
2021/05/11 00:37:26;;;;;;;2.10;1.20;;;12.00;99.90;;;;;;5097854;28;20200;-78
2021/05/11 00:39:51;;;;;;;2.50;1.33;;;12.10;99.90;;;;;;5097892;28;20198;-79
2021/05/11 00:42:17;;;;;;;1.70;1.07;;;12.00;99.90;;;;;;5079708;28;20291;-78
2021/05/11 00:44:43;;;;;;;3.07;1.63;;;12.00;99.90;;;;;;5079342;28;20613;-78
2021/05/11 00:47:08;;;;;;;1.40;1.30;;;12.00;99.90;;;;;;5098093;28;20203;-78
2021/05/11 00:49:36;;;;;;;1.23;1.10;;;11.90;99.90;;;;;;5098196;28;20184;-79
2021/05/11 00:52:05;;;;;;;2.27;1.33;;;11.80;99.90;;;;;;5098179;28;20716;-79
2021/05/11 00:54:31;;;;;;;1.70;1.60;;;11.70;99.90;;;;;;5080519;28;20176;-79
2021/05/11 00:56:57;;;;;;;1.43;1.30;;;11.70;99.90;;;;;;5098480;28;20215;-79
2021/05/11 00:59:26;;;;;;;1.20;1.10;;;11.60;99.90;;;;;;5098004;28;20176;-78
2021/05/11 01:01:56;;;;;;;2.60;1.30;;;11.60;99.90;;;;;;5079186;28;20200;-79
2021/05/11 01:04:23;;;;;;;1.67;1.17;;;11.60;99.90;;;;;;5079442;28;20198;-79
2021/05/11 01:06:49;;;;;;;1.37;1.27;;;11.50;99.90;;;;;;5079507;28;20211;-79
2021/05/11 01:09:15;;;;;;;2.17;1.50;;;11.50;99.90;;;;;;5098185;28;20234;-79
2021/05/11 01:11:41;;;;;;;1.30;1.20;;;11.40;99.90;;;;;;5079567;28;20208;-79
2021/05/11 01:14:07;;;;;;;1.30;1.20;;;11.40;99.90;;;;;;5097523;28;20225;-79
2021/05/11 01:16:33;;;;;;;1.70;1.30;;;11.30;99.90;;;;;;5097433;28;20565;-79
2021/05/11 01:19:12;;;;;;;2.33;1.43;;;11.30;99.90;;;;;;5097875;28;20252;-79
2021/05/11 01:24:23;;;;;;;1.00;0.90;;;11.20;99.90;;;;;;5096959;28;20175;-78
2021/05/11 01:27:14;;;;;;;4.27;1.47;;;11.20;99.90;;;;;;5078062;28;20176;-78
2021/05/11 01:49:04;;;;;;;1.53;1.43;;;11.10;99.90;;;;;;5097424;28;20166;-79
2021/05/11 02:24:03;;;;;;;1.50;1.40;;;10.80;99.90;;;;;;5096859;28;20661;-78
2021/05/11 02:26:29;;;;;;;2.07;1.47;;;10.80;99.90;;;;;;5095933;28;20175;-79
2021/05/11 02:28:54;;;;;;;1.90;1.70;;;10.70;99.90;;;;;;5096674;28;20180;-78
2021/05/11 02:31:20;;;;;;;1.77;1.27;;;10.70;99.90;;;;;;5077750;28;20243;-78
2021/05/11 02:33:46;;;;;;;1.70;1.60;;;10.70;99.90;;;;;;5078169;28;20214;-79
2021/05/11 02:36:11;;;;;;;2.80;1.80;;;10.70;99.90;;;;;;5096100;28;20259;-78
2021/05/11 02:38:37;;;;;;;2.80;1.80;;;10.60;99.90;;;;;;5096264;28;20529;-79
2021/05/11 02:41:03;;;;;;;1.70;1.50;;;10.60;99.90;;;;;;5077787;28;20606;-79
2021/05/11 02:43:35;;;;;;;1.80;1.40;;;10.60;99.90;;;;;;5077782;28;20542;-79
2021/05/11 02:46:01;;;;;;;1.40;1.30;;;10.50;99.90;;;;;;5096263;28;20156;-79
2021/05/11 02:48:26;;;;;;;1.70;1.20;;;10.50;99.90;;;;;;5077745;28;20245;-78
2021/05/11 02:50:52;;;;;;;2.40;1.50;;;10.40;99.90;;;;;;5096113;28;20274;-79
2021/05/11 02:53:17;;;;;;;1.40;1.30;;;10.40;99.90;;;;;;5096775;28;20732;-78
2021/05/11 02:55:43;;;;;;;1.33;1.23;;;10.40;99.90;;;;;;5095858;28;20233;-79
2021/05/11 02:58:13;;;;;;;2.60;1.20;;;10.30;99.90;;;;;;5096522;28;20279;-79
2021/05/11 03:00:39;;;;;;;1.70;1.43;;;10.30;99.90;;;;;;5095997;28;20198;-79
2021/05/11 03:03:05;;;;;;;2.40;1.57;;;10.20;99.90;;;;;;5096112;28;20172;-78
2021/05/11 03:05:31;;;;;;;2.00;1.60;;;10.20;99.90;;;;;;5077958;28;20178;-78
2021/05/11 03:07:57;;;;;;;1.60;1.50;;;10.10;99.90;;;;;;5095215;28;20177;-78
2021/05/11 03:10:22;;;;;;;2.87;1.80;;;10.10;99.90;;;;;;5095302;28;20172;-79
2021/05/11 03:12:49;;;;;;;2.67;1.93;;;10.00;99.90;;;;;;5095135;28;20180;-78
2021/05/11 03:15:15;;;;;;;2.10;1.90;;;9.90;99.90;;;;;;5094590;28;20175;-78
2021/05/11 03:17:42;;;;;;;3.17;2.00;;;9.80;99.90;;;;;;5094750;28;20196;-79
2021/05/11 03:20:09;;;;;;;3.87;2.00;;;9.80;99.90;;;;;;5095121;28;20176;-79
2021/05/11 03:22:35;;;;;;;2.60;2.30;;;9.70;99.90;;;;;;5095123;28;20177;-79
2021/05/11 03:25:02;;;;;;;3.47;2.73;;;9.60;99.90;;;;;;5095113;28;20321;-79
2021/05/11 03:27:27;;;;;;;2.70;2.23;;;9.60;99.90;;;;;;5095469;28;20250;-78
2021/05/11 03:29:53;;;;;;;2.50;2.30;;;9.60;99.90;;;;;;5077048;28;20176;-79
2021/05/11 03:32:19;;;;;;;3.40;2.40;;;9.50;99.90;;;;;;5080870;28;20200;-79
2021/05/11 03:34:44;;;;;;;3.90;2.63;;;9.50;99.90;;;;;;5099031;28;20182;-79
2021/05/11 03:37:10;;;;;;;4.30;2.43;;;9.50;99.90;;;;;;5099588;28;20218;-79
2021/05/11 03:39:41;;;;;;;2.47;2.27;;;9.50;99.90;;;;;;5098824;28;20215;-79
2021/05/11 03:44:53;;;;;;;3.00;2.30;;;9.40;99.90;;;;;;5099191;28;20561;-79
2021/05/11 03:47:21;;;;;;;3.03;2.73;;;9.40;99.90;;;;;;5081409;28;20212;-79
2021/05/11 03:49:47;;;;;;;4.97;2.83;;;9.40;99.90;;;;;;5099312;28;20171;-78
2021/05/11 03:52:13;;;;;;;2.60;2.40;;;9.40;99.90;;;;;;5098904;28;20227;-79
2021/05/11 03:54:38;;;;;;;3.10;2.67;;;9.40;99.90;;;;;;5080678;28;20178;-79
2021/05/11 03:57:05;;;;;;;2.93;2.30;;;9.30;99.90;;;;;;5099102;28;20194;-79
2021/05/11 03:59:31;;;;;;;3.03;2.60;;;9.30;99.90;;;;;;5080646;28;20228;-79
2021/05/11 04:01:57;;;;;;;3.30;3.00;;;9.30;99.90;;;;;;5081086;28;20218;-79
2021/05/11 04:04:24;;;;;;;5.17;2.90;;;9.20;99.90;;;;;;5080583;28;20252;-79
2021/05/11 04:06:49;;;;;;;6.03;3.20;;;9.20;99.90;;;;;;5098737;28;20166;-79
2021/05/11 04:16:59;;;;;;;5.67;4.30;;;9.30;99.90;;;;;;5099719;28;20264;-79
2021/05/11 04:19:25;;;;;;;8.30;4.53;;;9.40;99.90;;;;;;5099490;28;20625;-79
2021/05/11 04:21:51;;;;;;;7.23;3.60;;;9.40;99.90;;;;;;5098921;28;20706;-79
2021/05/11 04:24:16;;;;;;;4.60;3.00;;;9.40;99.90;;;;;;5098723;28;20276;-79
2021/05/11 04:26:42;;;;;;;4.73;2.90;;;9.30;99.90;;;;;;5098385;28;20177;-78
2021/05/11 04:29:08;;;;;;;3.07;2.60;;;9.30;99.90;;;;;;5096596;28;20178;-78
2021/05/11 04:31:37;;;;;;;4.63;3.20;;;9.30;99.90;;;;;;5096431;28;20226;-78
2021/05/11 04:34:03;;;;;;;5.97;4.03;;;9.30;99.90;;;;;;5096732;28;20626;-78
2021/05/11 04:36:29;;;;;;;6.17;3.23;;;9.30;99.90;;;;;;5096526;28;20175;-78
2021/05/11 04:38:54;;;;;;;5.00;3.87;;;9.30;99.90;;;;;;5096751;28;20179;-78
2021/05/11 04:41:20;;;;;;;6.70;3.40;;;9.30;99.90;;;;;;5078185;28;20203;-78
2021/05/11 04:43:48;;;;;;;4.83;3.83;;;9.30;99.90;;;;;;5077584;28;20277;-78
2021/05/11 04:48:49;;;;;;;4.23;2.87;;;9.50;99.90;;;;;;5096546;28;20150;-77
2021/05/11 04:51:16;;;;;;;4.47;3.40;;;9.60;99.90;;;;;;5096575;28;20199;-78
2021/05/11 04:53:43;;;;;;;4.17;3.13;;;9.70;99.90;;;;;;5079258;28;20187;-78
2021/05/11 04:56:08;;;;;;;3.03;2.73;;;9.80;99.90;;;;;;5097620;28;20175;-78
2021/05/11 04:58:34;;;;;;;3.37;3.03;;;9.90;99.90;;;;;;5078792;28;20684;-78
2021/05/11 05:01:01;;;;;;;6.37;3.70;;;10.10;99.90;;;;;;5078756;28;20222;-78
2021/05/11 05:03:33;;;;;;;5.07;2.60;;;10.20;99.90;;;;;;5079095;28;20593;-78
2021/05/11 05:05:59;;;;;;;4.87;3.07;;;10.30;99.90;;;;;;5048625;28;20222;-77
2021/05/11 05:08:24;;;;;;;5.90;3.13;;;10.30;99.90;;;;;;5078202;28;20177;-79
2021/05/11 05:10:51;;;;;;;2.83;2.53;;;10.40;99.90;;;;;;5096599;28;20191;-78
2021/05/11 05:13:21;;;;;;;3.07;2.73;;;10.50;99.90;;;;;;5096446;28;20170;-78
2021/05/11 05:15:54;;;;;;;4.50;2.93;;;10.60;99.90;;;;;;5096442;28;20157;-79
2021/05/11 05:18:20;;;;;;;3.00;2.70;;;10.70;99.90;;;;;;5096311;28;20195;-79
2021/05/11 05:20:49;;;;;;;2.87;2.40;;;10.80;99.90;;;;;;5081429;28;20347;-78
2021/05/11 05:23:16;;;;;;;3.20;2.33;;;10.90;99.90;;;;;;5076075;28;20650;-78
2021/05/11 05:25:46;;;;;;;6.07;2.13;;;11.00;99.90;;;;;;5075654;28;20168;-78
2021/05/11 05:28:13;;;;;;;2.77;2.20;;;11.20;99.90;;;;;;5058059;28;20262;-79
2021/05/11 05:30:39;;;;;;;3.87;2.37;;;11.30;99.90;;;;;;5058283;28;20562;-79
2021/05/11 05:33:05;;;;;;;4.20;2.17;;;11.50;99.90;;;;;;5057478;28;20175;-79
2021/05/11 05:35:31;;;;;;;1.87;1.67;;;11.60;99.90;;;;;;5075016;28;20227;-78
2021/05/11 05:37:57;;;;;;;2.60;1.80;;;11.80;99.90;;;;;;5057255;28;20200;-79
2021/05/11 05:40:25;;;;;;;2.07;1.87;;;11.80;99.90;;;;;;5075151;28;20169;-78
2021/05/11 05:42:50;;;;;;;1.90;1.63;;;11.80;99.90;;;;;;5075187;28;20166;-79
2021/05/11 05:45:17;;;;;;;3.43;1.60;;;11.90;99.90;;;;;;5075136;28;20172;-78
2021/05/11 05:47:51;;;;;;;4.10;1.87;;;12.00;99.90;;;;;;5057292;28;20184;-79
2021/05/11 05:50:26;;;;;;;2.97;1.60;;;12.10;99.90;;;;;;5058044;28;20167;-79
2021/05/11 05:53:00;;;;;;;1.53;1.43;;;12.30;99.90;;;;;;5058454;28;20530;-79
2021/05/11 05:55:25;;;;;;;2.23;1.60;;;12.40;99.90;;;;;;5057410;28;20161;-79
2021/05/11 05:57:51;;;;;;;3.00;2.00;;;12.40;99.90;;;;;;5059775;28;20204;-79
2021/05/11 06:00:17;;;;;;;1.80;1.67;;;12.50;99.90;;;;;;5075712;28;20248;-79
2021/05/11 06:02:45;;;;;;;3.57;1.60;;;12.60;99.90;;;;;;5058030;28;20173;-79
2021/05/11 06:05:12;;;;;;;3.53;1.50;;;12.60;99.90;;;;;;5058021;28;20184;-79
2021/05/11 06:07:39;;;;;;;3.10;1.67;;;12.70;99.90;;;;;;5075946;28;20252;-79
2021/05/11 06:10:07;;;;;;;6.97;1.97;;;12.70;99.90;;;;;;5058849;28;20181;-79
2021/05/11 06:12:40;;;;;;;5.97;1.83;;;12.80;99.90;;;;;;5057522;28;20197;-78
2021/05/11 06:17:36;;;;;;;2.53;1.50;;;12.90;99.90;;;;;;5076112;28;20243;-79
2021/05/11 06:20:03;;;;;;;2.20;1.77;;;12.80;99.90;;;;;;5057904;28;20181;-79
2021/05/11 06:22:28;;;;;;;2.53;1.37;;;12.90;99.90;;;;;;5057283;28;20291;-79
2021/05/11 06:24:54;;;;;;;1.80;1.43;;;13.00;99.90;;;;;;5075734;28;20207;-79
2021/05/11 06:27:20;;;;;;;2.77;1.33;;;13.00;99.90;;;;;;5075363;28;20184;-79
2021/05/11 06:29:47;;;;;;;1.17;1.07;;;13.10;99.90;;;;;;5075573;28;20165;-79
2021/05/11 06:32:13;;;;;;;3.20;2.10;;;13.30;99.90;;;;;;5057740;28;20216;-79
2021/05/11 06:34:52;;;;;;;5.37;1.50;;;13.50;99.90;;;;;;5075694;28;20236;-78
2021/05/11 06:37:17;;;;;;;1.70;1.43;;;13.70;99.90;;;;;;5075627;28;20181;-79
2021/05/11 06:39:46;;;;;;;1.80;1.30;;;13.80;99.90;;;;;;5076116;28;20176;-79
2021/05/11 06:42:12;;;;;;;5.43;1.73;;;13.90;99.90;;;;;;5075806;28;20552;-79
2021/05/11 06:47:25;;;;;;;4.03;1.40;;;14.30;99.90;;;;;;5076050;28;20169;-79
2021/05/11 06:55:01;;;;;;;2.50;1.27;;;14.50;99.90;;;;;;5076092;28;20220;-79
2021/05/11 06:57:30;;;;;;;1.17;1.07;;;14.60;99.90;;;;;;5058308;28;20196;-79
2021/05/11 06:59:56;;;;;;;2.17;1.33;;;14.60;99.90;;;;;;5058206;28;20175;-79
2021/05/11 07:02:22;;;;;;;1.43;1.33;;;14.70;99.90;;;;;;5058699;28;20193;-79
2021/05/11 07:04:48;;;;;;;2.50;1.30;;;14.70;99.90;;;;;;5075698;28;20172;-80
2021/05/11 07:07:15;;;;;;;1.20;1.10;;;14.90;99.90;;;;;;5081157;28;20177;-79
2021/05/11 07:14:32;;;;;;;5.23;1.00;;;14.90;99.90;;;;;;5079804;28;20643;-79
2021/05/11 07:16:58;;;;;;;1.30;0.90;;;14.90;99.90;;;;;;5061415;28;20205;-79
2021/05/11 07:19:24;;;;;;;1.90;1.20;;;15.10;99.90;;;;;;5079720;28;20165;-79
2021/05/11 07:21:50;;;;;;;1.30;1.03;;;15.20;99.90;;;;;;5061443;28;20653;-79
2021/05/11 07:24:17;;;;;;;1.13;1.00;;;15.20;99.90;;;;;;5079438;28;20197;-80
2021/05/11 07:29:54;;;;;;;1.87;1.00;;;14.80;99.90;;;;;;5079526;28;20541;-78
2021/05/11 07:32:13;;;;;;;1.47;1.13;;;14.70;99.90;;;;;;5078459;28;20362;-79
2021/05/11 07:34:43;;;;;;;2.37;1.23;;;14.70;99.90;;;;;;5078733;28;20166;-78
2021/05/11 07:37:09;;;;;;;3.13;1.30;;;14.70;99.90;;;;;;5060861;28;20193;-79
2021/05/11 07:39:35;;;;;;;2.23;1.17;;;14.80;99.90;;;;;;5078752;28;20173;-79
2021/05/11 07:42:01;;;;;;;1.13;1.03;;;14.90;99.90;;;;;;5078966;28;20193;-79
2021/05/11 07:44:29;;;;;;;1.30;1.20;;;14.90;99.90;;;;;;5060712;28;20184;-79
2021/05/11 07:47:56;;;;;;;1.40;1.30;;;15.00;99.90;;;;;;5060817;28;20185;-79
2021/05/11 07:50:16;;;;;;;2.60;1.40;;;15.10;99.90;;;;;;5072268;28;20193;-79
2021/05/11 08:17:29;;;;;;;3.27;1.90;;;17.40;99.90;;;;;;5077090;28;20236;-79
2021/05/11 08:28:14;;;;;;;3.47;2.03;;;19.10;99.90;;;;;;5078518;28;20686;-79
2021/05/11 08:30:40;;;;;;;2.90;1.73;;;19.20;99.90;;;;;;5078534;28;20199;-78
2021/05/11 08:33:06;;;;;;;1.70;1.60;;;18.60;99.90;;;;;;5077835;28;20182;-78
2021/05/11 08:35:31;;;;;;;2.07;1.50;;;18.60;99.90;;;;;;5077704;28;20175;-79
2021/05/11 08:37:57;;;;;;;1.53;1.43;;;18.60;99.90;;;;;;5077498;28;20198;-79
2021/05/11 08:40:24;;;;;;;3.90;1.77;;;18.40;99.90;;;;;;5059571;28;20177;-79
2021/05/11 08:42:50;;;;;;;1.90;1.60;;;18.30;99.90;;;;;;5059628;28;20523;-78
2021/05/11 08:45:16;;;;;;;2.40;1.80;;;18.00;99.90;;;;;;5077139;28;20302;-79
2021/05/11 08:47:52;;;;;;;1.50;1.40;;;17.90;99.90;;;;;;5059736;28;20278;-79
2021/05/11 08:50:22;;;;;;;4.37;1.93;;;18.00;99.90;;;;;;5077386;28;20155;-79
2021/05/11 08:53:02;;;;;;;2.20;1.47;;;18.10;99.90;;;;;;5059086;28;20515;-79
2021/05/11 08:59:55;;;;;;;3.57;1.70;;;18.00;99.90;;;;;;5059433;28;20194;-79
2021/05/11 09:04:49;;;;;;;1.60;1.43;;;18.20;99.90;;;;;;5077629;28;20215;-79
2021/05/11 09:57:04;;;;;;;5.17;2.00;;;19.10;99.90;;;;;;5082975;28;20537;-79
2021/05/11 10:38:10;;;;;;;4.07;2.23;;;18.60;99.90;;;;;;5076026;28;20682;-78
2021/05/11 10:48:34;;;;;;;2.40;2.20;;;18.60;99.90;;;;;;5076220;28;20164;-78
2021/05/11 10:51:24;;;;;;;2.97;2.17;;;18.60;99.90;;;;;;5073684;28;20209;-78
2021/05/11 10:54:09;;;;;;;2.83;2.33;;;18.60;99.90;;;;;;5058057;28;20172;-78
2021/05/11 10:56:40;;;;;;;6.77;2.23;;;18.40;99.90;;;;;;5057508;28;20220;-78
2021/05/11 10:59:12;;;;;;;2.40;2.20;;;18.20;99.90;;;;;;5058360;28;20171;-78
2021/05/11 11:01:38;;;;;;;4.57;2.40;;;17.90;99.90;;;;;;5075588;28;20276;-79
2021/05/11 11:04:07;;;;;;;3.37;2.27;;;17.60;99.90;;;;;;5057596;28;20177;-78
2021/05/11 11:07:03;;;;;;;6.43;2.53;;;17.50;99.90;;;;;;5056242;28;20173;-78
2021/05/11 11:09:29;;;;;;;4.57;2.43;;;17.40;99.90;;;;;;5055535;28;20239;-78
2021/05/11 11:11:56;;;;;;;6.60;2.73;;;17.30;99.90;;;;;;5057832;28;20196;-78
2021/05/11 11:14:22;;;;;;;2.50;2.30;;;17.20;99.90;;;;;;5057660;28;20177;-78
2021/05/11 11:16:50;;;;;;;3.97;2.43;;;17.10;99.90;;;;;;5075628;28;20188;-78
2021/05/11 11:19:17;;;;;;;2.80;2.50;;;17.00;99.90;;;;;;5057630;28;20173;-78
2021/05/11 11:24:27;;;;;;;4.57;2.60;;;16.90;99.90;;;;;;5075929;28;20194;-79
2021/05/11 11:26:55;;;;;;;3.50;2.87;;;16.80;99.90;;;;;;5075954;28;20636;-78
2021/05/11 11:29:21;;;;;;;4.33;2.50;;;16.90;99.90;;;;;;5075953;28;20175;-79
2021/05/11 11:31:48;;;;;;;3.73;2.80;;;17.00;99.90;;;;;;5057789;28;20204;-78
2021/05/11 11:34:20;;;;;;;3.57;3.17;;;17.30;99.90;;;;;;5075005;28;20230;-78
2021/05/11 11:36:51;;;;;;;3.87;2.93;;;17.40;99.90;;;;;;5075123;28;20183;-78
2021/05/11 11:39:19;;;;;;;3.90;3.00;;;17.50;99.90;;;;;;5075347;28;20151;-78
2021/05/11 11:41:49;;;;;;;3.50;2.43;;;17.60;99.90;;;;;;5075481;28;20241;-78
2021/05/11 11:44:16;;;;;;;7.30;3.23;;;17.60;99.90;;;;;;5057995;28;20184;-78
2021/05/11 11:46:42;;;;;;;3.90;2.80;;;17.70;99.90;;;;;;5058519;28;20282;-79
2021/05/11 11:49:16;;;;;;;4.67;3.13;;;18.00;99.90;;;;;;5075020;28;20581;-79
2021/05/11 11:51:42;;;;;;;4.73;3.07;;;18.30;99.90;;;;;;5076223;28;20220;-79
2021/05/11 11:55:06;;;;;;;3.77;3.40;;;18.40;99.90;;;;;;5077712;28;20256;-80
2021/05/11 11:59:54;;;;;;;5.60;3.30;;;18.20;99.90;;;;;;5078458;28;20649;-79
2021/05/11 12:02:19;;;;;;;3.27;2.90;;;18.40;99.90;;;;;;5077663;28;20549;-79
2021/05/11 12:04:47;;;;;;;6.63;3.50;;;18.70;99.90;;;;;;5078100;28;20157;-80
2021/05/11 12:07:15;;;;;;;3.83;3.30;;;18.90;99.90;;;;;;5077647;28;20175;-79
2021/05/11 12:09:41;;;;;;;4.30;3.40;;;18.80;99.90;;;;;;5078263;28;20184;-79
2021/05/11 12:12:10;;;;;;;5.00;3.57;;;18.60;99.90;;;;;;5060769;28;20197;-79
2021/05/11 12:14:39;;;;;;;5.37;3.60;;;18.30;99.90;;;;;;5060420;28;20321;-79
2021/05/11 12:17:04;;;;;;;8.80;3.60;;;18.10;99.90;;;;;;5060411;28;20233;-79
2021/05/11 12:19:31;;;;;;;6.07;3.80;;;18.10;99.90;;;;;;5060187;28;20184;-79
2021/05/11 12:22:01;;;;;;;6.00;3.93;;;18.20;99.90;;;;;;5080639;28;20200;-79
2021/05/11 12:24:29;;;;;;;4.57;3.70;;;18.30;99.90;;;;;;5086261;28;20229;-79
2021/05/11 12:27:15;;;;;;;3.73;3.37;;;18.30;99.90;;;;;;5095582;28;20149;-79
2021/05/11 12:30:00;;;;;;;4.23;3.60;;;18.30;99.90;;;;;;5071663;28;20219;-79
2021/05/11 12:32:26;;;;;;;7.10;4.23;;;18.00;99.90;;;;;;5082815;28;20196;-78
2021/05/11 12:35:04;;;;;;;3.97;3.67;;;17.60;99.90;;;;;;5077528;28;20215;-78
2021/05/11 12:37:47;;;;;;;5.37;4.37;;;17.30;99.90;;;;;;5077412;28;20250;-79
2021/05/11 12:40:26;;;;;;;5.13;4.73;;;16.90;99.90;;;;;;5059364;28;20191;-79
2021/05/11 12:42:55;;;;;;;4.77;4.27;;;16.90;99.90;;;;;;5059296;28;20191;-79
2021/05/11 12:45:21;;;;;;;4.20;3.77;;;16.80;99.90;;;;;;5077075;28;20198;-79
2021/05/11 12:48:01;;;;;;;5.20;4.47;;;16.70;99.90;;;;;;5077835;28;20180;-79
2021/05/11 12:50:35;;;;;;;5.37;3.93;;;16.90;99.90;;;;;;5059472;28;20207;-79
2021/05/11 12:58:41;;;;;;;7.10;4.70;;;17.00;99.90;;;;;;5076805;28;20204;-79
2021/05/11 13:01:34;;;;;;;5.70;5.10;;;17.00;99.90;;;;;;5077027;28;20568;-79
2021/05/11 13:04:22;;;;;;;5.73;4.80;;;17.00;99.90;;;;;;5058716;28;20172;-81
2021/05/11 13:15:13;;;;;;;6.10;5.50;;;17.20;99.90;;;;;;5077214;28;20209;-79
2021/05/11 13:23:23;;;;;;;6.63;5.53;;;16.80;99.90;;;;;;5077089;28;20170;-79
2021/05/11 13:25:53;;;;;;;6.97;5.87;;;16.70;99.90;;;;;;5076478;28;20156;-79
2021/05/11 13:28:29;;;;;;;6.13;5.53;;;16.80;99.90;;;;;;5076297;28;20206;-79
2021/05/11 13:30:59;;;;;;;8.17;6.03;;;16.70;99.90;;;;;;5077112;28;20252;-79
2021/05/11 13:33:34;;;;;;;6.63;5.93;;;16.80;99.90;;;;;;5077129;28;20542;-79
2021/05/11 13:36:01;;;;;;;7.83;6.80;;;16.90;99.90;;;;;;5058971;28;20686;-79
2021/05/11 13:38:26;;;;;;;7.67;6.97;;;16.90;99.90;;;;;;5057886;28;20663;-79
2021/05/11 13:40:52;;;;;;;8.67;7.17;;;17.00;99.90;;;;;;5076239;28;20203;-79
2021/05/11 13:43:19;;;;;;;8.67;7.77;;;16.90;99.90;;;;;;5058310;28;20262;-79
2021/05/11 13:45:44;;;;;;;7.60;6.80;;;16.80;99.90;;;;;;5058097;28;20171;-79
2021/05/11 13:53:28;;;;;;;13.63;7.53;;;16.70;99.90;;;;;;5076700;28;20575;-79
2021/05/11 14:04:01;;;;;;;10.77;7.27;;;16.00;99.90;;;;;;5076145;28;20151;-81
2021/05/11 14:06:27;;;;;;;9.70;7.77;;;15.90;99.90;;;;;;5057831;28;20179;-79
2021/05/11 14:08:53;;;;;;;8.10;7.30;;;16.00;99.90;;;;;;5057973;28;20271;-79
2021/05/11 14:11:19;;;;;;;10.63;7.37;;;16.00;99.90;;;;;;5075886;28;20225;-79
2021/05/11 14:13:45;;;;;;;7.30;6.20;;;16.10;99.90;;;;;;5057884;28;20189;-79
2021/05/11 14:16:11;;;;;;;8.07;7.27;;;16.20;99.90;;;;;;5074889;28;20544;-79
2021/05/11 14:18:37;;;;;;;7.07;6.33;;;16.40;99.90;;;;;;5057830;28;20226;-79
2021/05/11 14:21:05;;;;;;;10.77;6.27;;;16.60;99.90;;;;;;5075916;28;20262;-79
2021/05/11 14:23:31;;;;;;;7.27;6.30;;;16.30;99.90;;;;;;5058067;28;20174;-79
2021/05/11 14:25:57;;;;;;;6.97;6.27;;;16.10;99.90;;;;;;5075864;28;20501;-79
2021/05/11 14:28:23;;;;;;;7.73;5.90;;;16.00;99.90;;;;;;5076221;28;20175;-79
2021/05/11 14:30:49;;;;;;;7.70;6.00;;;15.80;99.90;;;;;;5058188;28;20247;-79
2021/05/11 14:33:15;;;;;;;8.70;5.90;;;15.70;99.90;;;;;;5076332;28;20181;-79
2021/05/11 14:35:41;;;;;;;6.20;5.60;;;15.70;99.90;;;;;;5076411;28;20598;-79
2021/05/11 14:38:07;;;;;;;8.70;6.20;;;15.50;99.90;;;;;;5076668;28;20576;-79
2021/05/11 14:40:32;;;;;;;9.07;6.10;;;15.30;99.90;;;;;;5058260;28;20178;-78
2021/05/11 14:42:58;;;;;;;10.67;5.50;;;15.30;99.90;;;;;;5076175;28;20255;-79
2021/05/11 14:45:26;;;;;;;6.30;5.70;;;15.20;99.90;;;;;;5075692;28;20173;-79
2021/05/11 14:47:52;;;;;;;7.77;5.67;;;15.20;99.90;;;;;;5058272;28;20213;-79
2021/05/11 14:50:21;;;;;;;6.60;5.73;;;15.10;99.90;;;;;;5076530;28;20177;-79
2021/05/11 14:52:51;;;;;;;7.60;5.30;;;15.00;99.90;;;;;;5058836;28;20615;-79
2021/05/11 14:55:18;;;;;;;6.90;5.80;;;15.00;99.90;;;;;;5076569;28;20197;-79
2021/05/11 14:57:45;;;;;;;6.90;5.30;;;14.80;99.90;;;;;;5076990;28;20185;-79
2021/05/11 15:00:12;;;;;;;6.73;4.80;;;14.70;99.90;;;;;;5076555;28;20170;-79
2021/05/11 15:02:38;;;;;;;6.60;5.17;;;14.70;99.90;;;;;;5058975;28;20211;-79
2021/05/11 15:05:04;;;;;;;7.40;5.03;;;14.60;99.90;;;;;;5077167;28;20167;-79
2021/05/11 15:07:31;;;;;;;5.20;4.70;;;14.50;99.90;;;;;;5077307;28;20177;-80
2021/05/11 15:09:57;;;;;;;6.33;5.40;;;14.40;99.90;;;;;;5078015;28;20169;-79
2021/05/11 15:12:23;;;;;;;6.83;5.87;;;14.30;99.90;;;;;;5061051;28;20722;-79
2021/05/11 15:14:49;;;;;;;6.73;6.10;;;14.30;99.90;;;;;;5061757;28;20177;-79
2021/05/11 15:19:51;;;;;;;6.60;5.70;;;14.30;99.90;;;;;;5077319;28;20166;-78
2021/05/11 15:22:17;;;;;;;5.83;4.90;;;14.20;99.90;;;;;;5076505;28;20690;-78
2021/05/11 15:24:43;;;;;;;5.70;5.10;;;14.10;99.90;;;;;;5075826;28;20184;-78
2021/05/11 15:27:09;;;;;;;6.10;5.40;;;14.00;99.90;;;;;;5076296;28;20655;-79
2021/05/11 15:29:36;;;;;;;6.70;5.80;;;14.00;99.90;;;;;;5080324;28;20212;-79
2021/05/11 15:32:02;;;;;;;9.40;7.77;;;13.90;99.90;;;;;;5062542;28;20267;-79
2021/05/11 15:34:28;;;;;;;16.20;14.50;;;13.80;99.90;;;;;;5061760;28;20189;-79
2021/05/11 15:36:54;;;;;;;10.50;8.23;;;13.70;99.90;;;;;;5061601;28;20185;-79
2021/05/11 15:39:19;;;;;;;7.20;6.07;;;13.70;99.90;;;;;;5080049;28;20211;-80
2021/05/11 15:41:45;;;;;;;7.23;6.53;;;13.70;99.90;;;;;;5080043;28;20197;-80
2021/05/11 15:44:11;;;;;;;7.27;6.47;;;13.70;99.90;;;;;;5062078;28;20698;-79
2021/05/11 15:46:37;;;;;;;7.57;6.87;;;13.70;99.90;;;;;;5079858;28;20223;-79
2021/05/11 15:49:03;;;;;;;7.93;6.60;;;13.70;99.90;;;;;;5060756;28;20192;-79
2021/05/11 15:51:29;;;;;;;6.73;6.07;;;13.60;99.90;;;;;;5061275;28;20209;-80
2021/05/11 15:53:55;;;;;;;9.03;7.03;;;13.60;99.90;;;;;;5079769;28;20652;-80
2021/05/11 15:56:21;;;;;;;6.70;6.10;;;13.50;99.90;;;;;;5079057;28;20280;-79
2021/05/11 15:58:47;;;;;;;8.93;7.70;;;13.50;99.90;;;;;;5060481;28;20216;-80
2021/05/11 16:01:13;;;;;;;4.80;4.27;;;13.50;99.90;;;;;;5061119;28;20204;-79
2021/05/11 16:03:39;;;;;;;2.87;2.47;;;13.30;99.90;;;;;;5062054;28;20184;-79
2021/05/11 16:06:04;;;;;;;3.63;1.80;;;13.10;99.90;;;;;;5079625;28;20177;-80
2021/05/11 16:08:30;;;;;;;2.23;1.90;;;12.80;99.90;;;;;;5080645;28;20223;-81
2021/05/11 16:10:57;;;;;;;2.00;1.80;;;12.60;99.90;;;;;;5080252;28;20251;-80
2021/05/11 16:13:25;;;;;;;2.07;1.80;;;12.40;99.90;;;;;;5061335;28;20206;-82
2021/05/11 16:15:51;;;;;;;2.00;1.73;;;12.30;99.90;;;;;;5061828;28;20187;-80
2021/05/11 16:18:17;;;;;;;3.60;2.90;;;12.10;99.90;;;;;;5061147;28;20200;-80
2021/05/11 16:20:43;;;;;;;3.27;1.97;;;11.90;99.90;;;;;;5061063;28;20262;-80
2021/05/11 16:23:09;;;;;;;2.57;2.20;;;11.90;99.90;;;;;;5057628;28;20585;-79
2021/05/11 16:25:37;;;;;;;2.33;2.13;;;11.80;99.90;;;;;;5060140;28;20192;-80
2021/05/11 16:28:05;;;;;;;1.77;1.60;;;11.80;99.90;;;;;;5056706;28;20248;-79
2021/05/11 16:30:31;;;;;;;1.50;1.40;;;11.70;99.90;;;;;;5058298;28;20194;-79
2021/05/11 16:32:57;;;;;;;2.83;2.60;;;11.70;99.90;;;;;;5068945;28;20173;-79
2021/05/11 16:35:23;;;;;;;3.73;2.33;;;11.60;99.90;;;;;;5078694;28;20177;-79
2021/05/11 16:37:49;;;;;;;2.13;1.93;;;11.60;99.90;;;;;;5099832;28;20188;-79
2021/05/11 16:40:15;;;;;;;1.33;1.23;;;11.60;99.90;;;;;;5087331;28;20180;-79
2021/05/11 16:42:42;;;;;;;2.10;1.90;;;11.50;99.90;;;;;;5061122;28;20181;-81
2021/05/11 16:45:11;;;;;;;1.43;0.93;;;11.50;99.90;;;;;;5078382;28;20172;-79
2021/05/11 16:47:56;;;;;;;1.73;1.63;;;11.50;99.90;;;;;;5079085;28;20175;-79
2021/05/11 16:50:24;;;;;;;3.00;2.03;;;11.40;99.90;;;;;;5060823;28;20180;-79
2021/05/11 16:52:50;;;;;;;2.10;1.50;;;11.30;99.90;;;;;;5079039;28;20173;-80
2021/05/11 16:55:16;;;;;;;2.53;2.33;;;11.20;99.90;;;;;;5080191;28;20183;-79
2021/05/11 16:57:42;;;;;;;1.97;1.73;;;11.10;99.90;;;;;;5080902;28;20578;-79
2021/05/11 17:00:08;;;;;;;4.30;3.77;;;11.10;99.90;;;;;;5080454;28;20181;-82
2021/05/11 17:02:34;;;;;;;6.67;5.97;;;11.00;99.90;;;;;;5061454;28;20674;-80
2021/05/11 17:04:59;;;;;;;3.57;3.30;;;11.00;99.90;;;;;;5080758;28;20203;-80
2021/05/11 17:07:25;;;;;;;5.57;5.07;;;11.00;99.90;;;;;;5081334;28;20623;-80
2021/05/11 17:09:54;;;;;;;1.50;1.37;;;11.00;99.90;;;;;;5080281;28;20177;-81
2021/05/11 17:12:20;;;;;;;1.33;1.03;;;11.00;99.90;;;;;;5082379;28;20196;-80
2021/05/11 17:14:45;;;;;;;1.57;1.30;;;11.00;99.90;;;;;;5078709;28;20177;-79